sensor_id;sensor_type;location;lat;lon;timestamp;temperature;humidity
14737;DHT22;7459;53.590;10.062;2024-03-07T00:02:46;5.10;99.90
14737;DHT22;7459;53.590;10.062;2024-03-07T00:05:17;5.20;99.90
14737;DHT22;7459;53.590;10.062;2024-03-07T00:07:43;5.20;99.90
14737;DHT22;7459;53.590;10.062;2024-03-07T00:10:10;5.20;99.90
14737;DHT22;7459;53.590;10.062;2024-03-07T00:12:37;5.30;99.90
14737;DHT22;7459;53.590;10.062;2024-03-07T00:15:11;5.30;99.90
14737;DHT22;7459;53.590;10.062;2024-03-07T00:17:38;5.40;99.90
14737;DHT22;7459;53.590;10.062;2024-03-07T00:20:05;5.40;99.90
14737;DHT22;7459;53.590;10.062;2024-03-07T00:22:37;5.40;99.90
14737;DHT22;7459;53.590;10.062;2024-03-07T00:25:04;5.50;99.90
14737;DHT22;7459;53.590;10.062;2024-03-07T00:27:34;5.50;99.90
14737;DHT22;7459;53.590;10.062;2024-03-07T00:30:01;5.40;99.90
14737;DHT22;7459;53.590;10.062;2024-03-07T00:32:30;5.40;99.90
14737;DHT22;7459;53.590;10.062;2024-03-07T00:35:01;5.40;99.90
14737;DHT22;7459;53.590;10.062;2024-03-07T00:37:30;5.40;99.90
14737;DHT22;7459;53.590;10.062;2024-03-07T00:39:56;5.50;99.90
14737;DHT22;7459;53.590;10.062;2024-03-07T00:42:22;5.40;99.90
14737;DHT22;7459;53.590;10.062;2024-03-07T00:44:48;5.50;99.90
14737;DHT22;7459;53.590;10.062;2024-03-07T00:47:16;5.50;99.90
14737;DHT22;7459;53.590;10.062;2024-03-07T00:49:45;5.50;99.90
14737;DHT22;7459;53.590;10.062;2024-03-07T00:52:12;5.50;99.90
14737;DHT22;7459;53.590;10.062;2024-03-07T00:54:38;5.50;99.90
14737;DHT22;7459;53.590;10.062;2024-03-07T00:57:04;5.50;99.90
14737;DHT22;7459;53.590;10.062;2024-03-07T00:59:30;5.60;99.90
14737;DHT22;7459;53.590;10.062;2024-03-07T01:01:55;5.60;99.90
14737;DHT22;7459;53.590;10.062;2024-03-07T01:04:21;5.60;99.90
14737;DHT22;7459;53.590;10.062;2024-03-07T01:06:47;5.60;99.90
14737;DHT22;7459;53.590;10.062;2024-03-07T01:09:14;5.60;99.90
14737;DHT22;7459;53.590;10.062;2024-03-07T01:11:43;5.70;99.90
14737;DHT22;7459;53.590;10.062;2024-03-07T01:14:13;5.70;99.90
14737;DHT22;7459;53.590;10.062;2024-03-07T01:16:39;5.70;99.90
14737;DHT22;7459;53.590;10.062;2024-03-07T01:19:04;5.70;99.90
14737;DHT22;7459;53.590;10.062;2024-03-07T01:21:34;5.70;99.90
14737;DHT22;7459;53.590;10.062;2024-03-07T01:24:00;5.70;99.90
14737;DHT22;7459;53.590;10.062;2024-03-07T01:26:29;5.60;99.90
14737;DHT22;7459;53.590;10.062;2024-03-07T01:28:56;5.60;99.90
14737;DHT22;7459;53.590;10.062;2024-03-07T01:31:23;5.60;99.90
14737;DHT22;7459;53.590;10.062;2024-03-07T01:33:49;5.60;99.90
14737;DHT22;7459;53.590;10.062;2024-03-07T01:36:15;5.70;99.90
14737;DHT22;7459;53.590;10.062;2024-03-07T01:38:41;5.60;99.90
14737;DHT22;7459;53.590;10.062;2024-03-07T01:41:07;5.60;99.90
14737;DHT22;7459;53.590;10.062;2024-03-07T01:43:34;5.70;99.90
14737;DHT22;7459;53.590;10.062;2024-03-07T01:45:59;5.70;99.90
14737;DHT22;7459;53.590;10.062;2024-03-07T01:48:27;5.60;99.90
14737;DHT22;7459;53.590;10.062;2024-03-07T01:50:57;5.60;99.90
14737;DHT22;7459;53.590;10.062;2024-03-07T01:53:25;5.60;99.90
14737;DHT22;7459;53.590;10.062;2024-03-07T01:55:51;5.60;99.90
14737;DHT22;7459;53.590;10.062;2024-03-07T01:58:19;5.70;99.90
14737;DHT22;7459;53.590;10.062;2024-03-07T02:00:46;5.70;99.90
14737;DHT22;7459;53.590;10.062;2024-03-07T02:03:13;5.70;99.90
14737;DHT22;7459;53.590;10.062;2024-03-07T02:05:40;5.70;99.90
14737;DHT22;7459;53.590;10.062;2024-03-07T02:08:06;5.70;99.90
14737;DHT22;7459;53.590;10.062;2024-03-07T02:10:31;5.70;99.90
14737;DHT22;7459;53.590;10.062;2024-03-07T02:12:57;5.70;99.90
14737;DHT22;7459;53.590;10.062;2024-03-07T02:15:23;5.70;99.90
14737;DHT22;7459;53.590;10.062;2024-03-07T02:17:49;5.70;99.90
14737;DHT22;7459;53.590;10.062;2024-03-07T02:20:14;5.60;99.90
14737;DHT22;7459;53.590;10.062;2024-03-07T02:22:41;5.60;99.90
14737;DHT22;7459;53.590;10.062;2024-03-07T02:25:07;5.60;99.90
14737;DHT22;7459;53.590;10.062;2024-03-07T02:27:38;5.60;99.90
14737;DHT22;7459;53.590;10.062;2024-03-07T02:30:04;5.60;99.90
14737;DHT22;7459;53.590;10.062;2024-03-07T02:32:34;5.70;99.90
14737;DHT22;7459;53.590;10.062;2024-03-07T02:35:00;5.60;99.90
14737;DHT22;7459;53.590;10.062;2024-03-07T02:37:25;5.60;99.90
14737;DHT22;7459;53.590;10.062;2024-03-07T02:39:51;5.60;99.90
14737;DHT22;7459;53.590;10.062;2024-03-07T02:42:17;5.60;99.90
14737;DHT22;7459;53.590;10.062;2024-03-07T02:44:43;5.60;99.90
14737;DHT22;7459;53.590;10.062;2024-03-07T02:47:08;5.60;99.90
14737;DHT22;7459;53.590;10.062;2024-03-07T02:49:34;5.60;99.90
14737;DHT22;7459;53.590;10.062;2024-03-07T02:52:00;5.50;99.90
14737;DHT22;7459;53.590;10.062;2024-03-07T02:54:25;5.60;99.90
14737;DHT22;7459;53.590;10.062;2024-03-07T02:56:51;5.60;99.90
14737;DHT22;7459;53.590;10.062;2024-03-07T02:59:17;5.60;99.90
14737;DHT22;7459;53.590;10.062;2024-03-07T03:04:18;5.60;99.90
14737;DHT22;7459;53.590;10.062;2024-03-07T03:06:44;5.70;99.90
14737;DHT22;7459;53.590;10.062;2024-03-07T03:09:11;5.60;99.90
14737;DHT22;7459;53.590;10.062;2024-03-07T03:11:43;5.60;99.90
14737;DHT22;7459;53.590;10.062;2024-03-07T03:14:09;5.70;99.90
14737;DHT22;7459;53.590;10.062;2024-03-07T03:16:36;5.60;99.90
14737;DHT22;7459;53.590;10.062;2024-03-07T03:19:01;5.60;99.90
14737;DHT22;7459;53.590;10.062;2024-03-07T03:21:27;5.50;99.90
14737;DHT22;7459;53.590;10.062;2024-03-07T03:23:53;5.60;99.90
14737;DHT22;7459;53.590;10.062;2024-03-07T03:26:20;5.60;99.90
14737;DHT22;7459;53.590;10.062;2024-03-07T03:28:47;5.50;99.90
14737;DHT22;7459;53.590;10.062;2024-03-07T03:31:12;5.50;99.90
14737;DHT22;7459;53.590;10.062;2024-03-07T03:33:39;5.50;99.90
14737;DHT22;7459;53.590;10.062;2024-03-07T03:36:06;5.50;99.90
14737;DHT22;7459;53.590;10.062;2024-03-07T03:38:32;5.50;99.90
14737;DHT22;7459;53.590;10.062;2024-03-07T03:40:58;5.50;99.90
14737;DHT22;7459;53.590;10.062;2024-03-07T03:43:24;5.50;99.90
14737;DHT22;7459;53.590;10.062;2024-03-07T03:45:49;5.50;99.90
14737;DHT22;7459;53.590;10.062;2024-03-07T03:48:15;5.40;99.90
14737;DHT22;7459;53.590;10.062;2024-03-07T03:50:41;5.40;99.90
14737;DHT22;7459;53.590;10.062;2024-03-07T03:53:07;5.50;99.90
14737;DHT22;7459;53.590;10.062;2024-03-07T03:55:33;5.40;99.90
14737;DHT22;7459;53.590;10.062;2024-03-07T03:57:59;5.40;99.90
14737;DHT22;7459;53.590;10.062;2024-03-07T04:00:25;5.40;99.90
14737;DHT22;7459;53.590;10.062;2024-03-07T04:02:51;5.40;99.90
14737;DHT22;7459;53.590;10.062;2024-03-07T04:05:19;5.30;99.90
14737;DHT22;7459;53.590;10.062;2024-03-07T04:07:45;5.30;99.90
14737;DHT22;7459;53.590;10.062;2024-03-07T04:10:12;5.30;99.90
14737;DHT22;7459;53.590;10.062;2024-03-07T04:12:41;5.20;99.90
14737;DHT22;7459;53.590;10.062;2024-03-07T04:15:13;5.20;99.90
14737;DHT22;7459;53.590;10.062;2024-03-07T04:17:42;5.20;99.90
14737;DHT22;7459;53.590;10.062;2024-03-07T04:20:08;5.20;99.90
14737;DHT22;7459;53.590;10.062;2024-03-07T04:22:37;5.20;99.90
14737;DHT22;7459;53.590;10.062;2024-03-07T04:25:07;5.20;99.90
14737;DHT22;7459;53.590;10.062;2024-03-07T04:27:36;5.10;99.90
14737;DHT22;7459;53.590;10.062;2024-03-07T04:30:06;5.10;99.90
14737;DHT22;7459;53.590;10.062;2024-03-07T04:32:37;5.10;99.90
14737;DHT22;7459;53.590;10.062;2024-03-07T04:35:04;5.10;99.90
14737;DHT22;7459;53.590;10.062;2024-03-07T04:37:38;5.10;99.90
14737;DHT22;7459;53.590;10.062;2024-03-07T04:40:06;5.00;99.90
14737;DHT22;7459;53.590;10.062;2024-03-07T04:42:46;5.00;99.90
14737;DHT22;7459;53.590;10.062;2024-03-07T04:45:14;5.00;99.90
14737;DHT22;7459;53.590;10.062;2024-03-07T04:47:41;4.90;99.90
14737;DHT22;7459;53.590;10.062;2024-03-07T04:50:08;4.90;99.90
14737;DHT22;7459;53.590;10.062;2024-03-07T04:52:36;4.90;99.90
14737;DHT22;7459;53.590;10.062;2024-03-07T04:55:05;4.90;99.90
14737;DHT22;7459;53.590;10.062;2024-03-07T04:57:34;4.90;99.90
14737;DHT22;7459;53.590;10.062;2024-03-07T05:00:00;4.90;99.90
14737;DHT22;7459;53.590;10.062;2024-03-07T05:02:26;4.80;99.90
14737;DHT22;7459;53.590;10.062;2024-03-07T05:04:52;4.90;99.90
14737;DHT22;7459;53.590;10.062;2024-03-07T05:07:18;4.80;99.90
14737;DHT22;7459;53.590;10.062;2024-03-07T05:09:44;4.80;99.90
14737;DHT22;7459;53.590;10.062;2024-03-07T05:12:10;4.80;99.90
14737;DHT22;7459;53.590;10.062;2024-03-07T05:14:36;4.70;99.90
14737;DHT22;7459;53.590;10.062;2024-03-07T05:17:02;4.60;99.90
14737;DHT22;7459;53.590;10.062;2024-03-07T05:19:34;4.60;99.90
14737;DHT22;7459;53.590;10.062;2024-03-07T05:22:01;4.60;99.90
14737;DHT22;7459;53.590;10.062;2024-03-07T05:24:28;4.60;99.90
14737;DHT22;7459;53.590;10.062;2024-03-07T05:26:53;4.60;99.90
14737;DHT22;7459;53.590;10.062;2024-03-07T05:29:19;4.60;99.90
14737;DHT22;7459;53.590;10.062;2024-03-07T05:31:45;4.60;99.90
14737;DHT22;7459;53.590;10.062;2024-03-07T05:34:15;4.50;99.90
14737;DHT22;7459;53.590;10.062;2024-03-07T05:36:44;4.50;99.90
14737;DHT22;7459;53.590;10.062;2024-03-07T05:39:12;4.50;99.90
14737;DHT22;7459;53.590;10.062;2024-03-07T05:41:42;4.50;99.90
14737;DHT22;7459;53.590;10.062;2024-03-07T05:44:10;4.40;99.90
14737;DHT22;7459;53.590;10.062;2024-03-07T05:46:42;4.40;99.90
14737;DHT22;7459;53.590;10.062;2024-03-07T05:49:15;4.40;99.90
14737;DHT22;7459;53.590;10.062;2024-03-07T05:51:45;4.40;99.90
14737;DHT22;7459;53.590;10.062;2024-03-07T05:54:11;4.30;99.90
14737;DHT22;7459;53.590;10.062;2024-03-07T05:56:39;4.30;99.90
14737;DHT22;7459;53.590;10.062;2024-03-07T05:59:09;4.20;99.90
14737;DHT22;7459;53.590;10.062;2024-03-07T06:01:35;4.20;99.90
14737;DHT22;7459;53.590;10.062;2024-03-07T06:04:02;4.10;99.90
14737;DHT22;7459;53.590;10.062;2024-03-07T06:06:31;4.10;99.90
14737;DHT22;7459;53.590;10.062;2024-03-07T06:09:00;4.10;99.90
14737;DHT22;7459;53.590;10.062;2024-03-07T06:11:26;4.10;99.90
14737;DHT22;7459;53.590;10.062;2024-03-07T06:13:52;4.10;99.90
14737;DHT22;7459;53.590;10.062;2024-03-07T06:16:17;4.10;99.90
14737;DHT22;7459;53.590;10.062;2024-03-07T06:18:43;4.10;99.90
14737;DHT22;7459;53.590;10.062;2024-03-07T06:21:11;4.00;99.90
14737;DHT22;7459;53.590;10.062;2024-03-07T06:23:38;4.00;99.90
14737;DHT22;7459;53.590;10.062;2024-03-07T06:26:04;4.00;99.90
14737;DHT22;7459;53.590;10.062;2024-03-07T06:28:38;4.00;99.90
14737;DHT22;7459;53.590;10.062;2024-03-07T06:31:04;4.00;99.90
14737;DHT22;7459;53.590;10.062;2024-03-07T06:33:33;4.00;99.90
14737;DHT22;7459;53.590;10.062;2024-03-07T06:35:59;4.00;99.90
14737;DHT22;7459;53.590;10.062;2024-03-07T06:38:26;3.90;99.90
14737;DHT22;7459;53.590;10.062;2024-03-07T06:40:52;4.00;99.90
14737;DHT22;7459;53.590;10.062;2024-03-07T06:43:18;4.00;99.90
14737;DHT22;7459;53.590;10.062;2024-03-07T06:45:44;4.00;99.90
14737;DHT22;7459;53.590;10.062;2024-03-07T06:48:11;4.00;99.90
14737;DHT22;7459;53.590;10.062;2024-03-07T06:50:40;4.00;99.90
14737;DHT22;7459;53.590;10.062;2024-03-07T06:53:06;4.00;99.90
14737;DHT22;7459;53.590;10.062;2024-03-07T06:55:32;3.90;99.90
14737;DHT22;7459;53.590;10.062;2024-03-07T06:58:01;3.90;99.90
14737;DHT22;7459;53.590;10.062;2024-03-07T07:00:30;3.80;99.90
14737;DHT22;7459;53.590;10.062;2024-03-07T07:02:57;3.80;99.90
14737;DHT22;7459;53.590;10.062;2024-03-07T07:05:22;3.90;99.90
14737;DHT22;7459;53.590;10.062;2024-03-07T07:07:48;3.90;99.90
14737;DHT22;7459;53.590;10.062;2024-03-07T07:10:14;3.90;99.90
14737;DHT22;7459;53.590;10.062;2024-03-07T07:12:46;3.90;99.90
14737;DHT22;7459;53.590;10.062;2024-03-07T07:15:14;3.90;99.90
14737;DHT22;7459;53.590;10.062;2024-03-07T07:17:44;3.90;99.90
14737;DHT22;7459;53.590;10.062;2024-03-07T07:20:14;3.90;99.90
14737;DHT22;7459;53.590;10.062;2024-03-07T07:22:42;4.00;99.90
14737;DHT22;7459;53.590;10.062;2024-03-07T07:25:08;4.00;99.90
14737;DHT22;7459;53.590;10.062;2024-03-07T07:27:48;4.00;99.90
14737;DHT22;7459;53.590;10.062;2024-03-07T07:30:16;4.00;99.90
14737;DHT22;7459;53.590;10.062;2024-03-07T07:32:44;4.00;99.90
14737;DHT22;7459;53.590;10.062;2024-03-07T07:35:11;4.00;99.90
14737;DHT22;7459;53.590;10.062;2024-03-07T07:37:41;4.00;99.90
14737;DHT22;7459;53.590;10.062;2024-03-07T07:40:09;4.10;99.90
14737;DHT22;7459;53.590;10.062;2024-03-07T07:42:40;4.10;99.90
14737;DHT22;7459;53.590;10.062;2024-03-07T07:45:08;4.10;99.90
14737;DHT22;7459;53.590;10.062;2024-03-07T07:47:39;4.00;99.90
14737;DHT22;7459;53.590;10.062;2024-03-07T07:50:25;4.00;99.90
14737;DHT22;7459;53.590;10.062;2024-03-07T07:52:53;3.90;99.90
14737;DHT22;7459;53.590;10.062;2024-03-07T07:55:23;4.00;99.90
14737;DHT22;7459;53.590;10.062;2024-03-07T07:57:57;4.00;99.90
14737;DHT22;7459;53.590;10.062;2024-03-07T08:00:28;4.00;99.90
14737;DHT22;7459;53.590;10.062;2024-03-07T08:03:02;4.10;99.90
14737;DHT22;7459;53.590;10.062;2024-03-07T08:05:32;4.10;99.90
14737;DHT22;7459;53.590;10.062;2024-03-07T08:08:04;4.00;99.90
14737;DHT22;7459;53.590;10.062;2024-03-07T08:10:32;4.10;99.90
14737;DHT22;7459;53.590;10.062;2024-03-07T08:13:00;4.20;99.90
14737;DHT22;7459;53.590;10.062;2024-03-07T08:15:27;4.20;99.90
14737;DHT22;7459;53.590;10.062;2024-03-07T08:17:55;4.20;99.90
14737;DHT22;7459;53.590;10.062;2024-03-07T08:20:21;4.10;99.90
14737;DHT22;7459;53.590;10.062;2024-03-07T08:22:49;4.10;99.90
14737;DHT22;7459;53.590;10.062;2024-03-07T08:25:19;4.20;99.90
14737;DHT22;7459;53.590;10.062;2024-03-07T08:27:48;4.20;99.90
14737;DHT22;7459;53.590;10.062;2024-03-07T08:30:15;4.20;99.90
14737;DHT22;7459;53.590;10.062;2024-03-07T08:32:49;4.20;99.90
14737;DHT22;7459;53.590;10.062;2024-03-07T08:35:17;4.20;99.90
14737;DHT22;7459;53.590;10.062;2024-03-07T08:37:45;4.20;99.90
14737;DHT22;7459;53.590;10.062;2024-03-07T08:40:12;4.20;99.90
14737;DHT22;7459;53.590;10.062;2024-03-07T08:42:49;4.30;99.90
14737;DHT22;7459;53.590;10.062;2024-03-07T08:45:17;4.30;99.90
14737;DHT22;7459;53.590;10.062;2024-03-07T08:47:45;4.40;99.90
14737;DHT22;7459;53.590;10.062;2024-03-07T08:50:12;4.40;99.90
14737;DHT22;7459;53.590;10.062;2024-03-07T08:52:39;4.40;99.90
14737;DHT22;7459;53.590;10.062;2024-03-07T08:55:06;4.40;99.90
14737;DHT22;7459;53.590;10.062;2024-03-07T08:57:36;4.40;99.90
14737;DHT22;7459;53.590;10.062;2024-03-07T09:00:03;4.40;99.90
14737;DHT22;7459;53.590;10.062;2024-03-07T09:02:48;4.40;99.90
14737;DHT22;7459;53.590;10.062;2024-03-07T09:05:18;4.40;99.90
14737;DHT22;7459;53.590;10.062;2024-03-07T09:07:46;4.40;99.90
14737;DHT22;7459;53.590;10.062;2024-03-07T09:10:12;4.30;99.90
14737;DHT22;7459;53.590;10.062;2024-03-07T09:12:40;4.30;99.90
14737;DHT22;7459;53.590;10.062;2024-03-07T09:15:06;4.40;99.90
14737;DHT22;7459;53.590;10.062;2024-03-07T09:17:32;4.40;99.90
14737;DHT22;7459;53.590;10.062;2024-03-07T09:19:57;4.30;99.90
14737;DHT22;7459;53.590;10.062;2024-03-07T09:22:23;4.30;99.90
14737;DHT22;7459;53.590;10.062;2024-03-07T09:24:49;4.30;99.90
14737;DHT22;7459;53.590;10.062;2024-03-07T09:27:14;4.30;99.90
14737;DHT22;7459;53.590;10.062;2024-03-07T09:29:40;4.40;99.90
14737;DHT22;7459;53.590;10.062;2024-03-07T09:32:06;4.30;99.90
14737;DHT22;7459;53.590;10.062;2024-03-07T09:34:35;4.30;99.90
14737;DHT22;7459;53.590;10.062;2024-03-07T09:37:03;4.30;99.90
14737;DHT22;7459;53.590;10.062;2024-03-07T09:39:29;4.30;99.90
14737;DHT22;7459;53.590;10.062;2024-03-07T09:42:03;4.40;99.90
14737;DHT22;7459;53.590;10.062;2024-03-07T09:44:31;4.40;99.90
14737;DHT22;7459;53.590;10.062;2024-03-07T09:46:59;4.40;99.90
14737;DHT22;7459;53.590;10.062;2024-03-07T09:49:28;4.40;99.90
14737;DHT22;7459;53.590;10.062;2024-03-07T09:51:55;4.40;99.90
14737;DHT22;7459;53.590;10.062;2024-03-07T09:54:23;4.40;99.90
14737;DHT22;7459;53.590;10.062;2024-03-07T09:56:53;4.40;99.90
14737;DHT22;7459;53.590;10.062;2024-03-07T09:59:20;4.40;99.90
14737;DHT22;7459;53.590;10.062;2024-03-07T10:01:54;4.30;99.90
14737;DHT22;7459;53.590;10.062;2024-03-07T10:04:29;4.40;99.90
14737;DHT22;7459;53.590;10.062;2024-03-07T10:06:57;4.40;99.90
14737;DHT22;7459;53.590;10.062;2024-03-07T10:09:24;4.40;99.90
14737;DHT22;7459;53.590;10.062;2024-03-07T10:11:57;4.40;99.90
14737;DHT22;7459;53.590;10.062;2024-03-07T10:14:23;4.50;99.90
14737;DHT22;7459;53.590;10.062;2024-03-07T10:16:49;4.40;99.90
14737;DHT22;7459;53.590;10.062;2024-03-07T10:19:15;4.50;99.90
14737;DHT22;7459;53.590;10.062;2024-03-07T10:21:41;4.50;99.90
14737;DHT22;7459;53.590;10.062;2024-03-07T10:24:07;4.60;99.90
14737;DHT22;7459;53.590;10.062;2024-03-07T10:26:43;4.60;99.90
14737;DHT22;7459;53.590;10.062;2024-03-07T10:29:08;4.60;99.90
14737;DHT22;7459;53.590;10.062;2024-03-07T10:31:35;4.50;99.90
14737;DHT22;7459;53.590;10.062;2024-03-07T10:34:03;4.60;99.90
14737;DHT22;7459;53.590;10.062;2024-03-07T10:36:32;4.50;99.90
14737;DHT22;7459;53.590;10.062;2024-03-07T10:38:59;4.50;99.90
14737;DHT22;7459;53.590;10.062;2024-03-07T10:41:44;4.60;99.90
14737;DHT22;7459;53.590;10.062;2024-03-07T10:44:19;4.70;99.90
14737;DHT22;7459;53.590;10.062;2024-03-07T10:46:52;4.70;99.90
14737;DHT22;7459;53.590;10.062;2024-03-07T10:49:20;4.80;99.90
14737;DHT22;7459;53.590;10.062;2024-03-07T10:52:02;4.90;99.90
14737;DHT22;7459;53.590;10.062;2024-03-07T10:54:43;4.90;99.90
14737;DHT22;7459;53.590;10.062;2024-03-07T10:57:27;5.00;99.90
14737;DHT22;7459;53.590;10.062;2024-03-07T11:00:05;5.00;99.90
14737;DHT22;7459;53.590;10.062;2024-03-07T11:02:55;5.10;99.90
14737;DHT22;7459;53.590;10.062;2024-03-07T11:05:25;5.10;99.90
14737;DHT22;7459;53.590;10.062;2024-03-07T11:07:51;5.20;99.90
14737;DHT22;7459;53.590;10.062;2024-03-07T11:10:18;5.20;99.90
14737;DHT22;7459;53.590;10.062;2024-03-07T11:12:46;5.30;99.90
14737;DHT22;7459;53.590;10.062;2024-03-07T11:15:15;5.30;99.90
14737;DHT22;7459;53.590;10.062;2024-03-07T11:17:46;5.40;99.90
14737;DHT22;7459;53.590;10.062;2024-03-07T11:22:46;5.40;99.90
14737;DHT22;7459;53.590;10.062;2024-03-07T11:25:12;5.50;99.90
14737;DHT22;7459;53.590;10.062;2024-03-07T11:27:38;5.50;99.90
14737;DHT22;7459;53.590;10.062;2024-03-07T11:30:08;5.50;99.90
14737;DHT22;7459;53.590;10.062;2024-03-07T11:32:37;5.50;99.90
14737;DHT22;7459;53.590;10.062;2024-03-07T11:35:11;5.50;99.90
14737;DHT22;7459;53.590;10.062;2024-03-07T11:37:42;5.60;99.90
14737;DHT22;7459;53.590;10.062;2024-03-07T11:42:51;5.60;99.90
14737;DHT22;7459;53.590;10.062;2024-03-07T11:45:19;5.60;99.90
14737;DHT22;7459;53.590;10.062;2024-03-07T11:47:56;5.70;99.90
14737;DHT22;7459;53.590;10.062;2024-03-07T11:50:39;5.70;99.90
14737;DHT22;7459;53.590;10.062;2024-03-07T11:53:06;5.70;99.90
14737;DHT22;7459;53.590;10.062;2024-03-07T11:55:37;5.70;99.90
14737;DHT22;7459;53.590;10.062;2024-03-07T11:58:14;5.80;99.90
14737;DHT22;7459;53.590;10.062;2024-03-07T12:00:51;5.80;99.90
14737;DHT22;7459;53.590;10.062;2024-03-07T12:03:18;5.80;99.90
14737;DHT22;7459;53.590;10.062;2024-03-07T12:05:47;5.80;99.90
14737;DHT22;7459;53.590;10.062;2024-03-07T12:08:14;5.80;99.90
14737;DHT22;7459;53.590;10.062;2024-03-07T12:10:41;5.90;99.90
14737;DHT22;7459;53.590;10.062;2024-03-07T12:13:10;5.80;99.90
14737;DHT22;7459;53.590;10.062;2024-03-07T12:15:41;5.80;99.90
14737;DHT22;7459;53.590;10.062;2024-03-07T12:18:08;5.90;99.90
14737;DHT22;7459;53.590;10.062;2024-03-07T12:20:38;5.90;99.90
14737;DHT22;7459;53.590;10.062;2024-03-07T12:23:06;5.90;99.90
14737;DHT22;7459;53.590;10.062;2024-03-07T12:25:34;5.90;99.90
14737;DHT22;7459;53.590;10.062;2024-03-07T12:28:10;5.90;99.90
14737;DHT22;7459;53.590;10.062;2024-03-07T12:30:53;6.00;99.90
14737;DHT22;7459;53.590;10.062;2024-03-07T12:33:20;6.00;99.90
14737;DHT22;7459;53.590;10.062;2024-03-07T12:35:50;6.00;99.90
14737;DHT22;7459;53.590;10.062;2024-03-07T12:38:18;6.00;99.90
14737;DHT22;7459;53.590;10.062;2024-03-07T12:41:02;6.00;99.90
14737;DHT22;7459;53.590;10.062;2024-03-07T12:43:32;6.00;99.90
14737;DHT22;7459;53.590;10.062;2024-03-07T12:45:58;6.00;99.90
14737;DHT22;7459;53.590;10.062;2024-03-07T12:48:24;6.00;99.90
14737;DHT22;7459;53.590;10.062;2024-03-07T12:50:51;6.00;99.90
14737;DHT22;7459;53.590;10.062;2024-03-07T12:53:21;6.00;99.90
14737;DHT22;7459;53.590;10.062;2024-03-07T12:55:54;6.10;99.90
14737;DHT22;7459;53.590;10.062;2024-03-07T12:58:20;6.10;99.90
14737;DHT22;7459;53.590;10.062;2024-03-07T13:00:54;6.10;99.90
14737;DHT22;7459;53.590;10.062;2024-03-07T13:03:21;6.10;99.90
14737;DHT22;7459;53.590;10.062;2024-03-07T13:05:47;6.20;99.90
14737;DHT22;7459;53.590;10.062;2024-03-07T13:08:13;6.20;99.90
14737;DHT22;7459;53.590;10.062;2024-03-07T13:10:42;6.20;99.90
14737;DHT22;7459;53.590;10.062;2024-03-07T13:13:08;6.20;99.90
14737;DHT22;7459;53.590;10.062;2024-03-07T13:15:40;6.20;99.90
14737;DHT22;7459;53.590;10.062;2024-03-07T13:18:08;6.20;99.90
14737;DHT22;7459;53.590;10.062;2024-03-07T13:20:35;6.20;99.90
14737;DHT22;7459;53.590;10.062;2024-03-07T13:23:01;6.30;99.90
14737;DHT22;7459;53.590;10.062;2024-03-07T13:25:28;6.30;99.90
14737;DHT22;7459;53.590;10.062;2024-03-07T13:28:07;6.30;99.90
14737;DHT22;7459;53.590;10.062;2024-03-07T13:30:39;6.40;99.90
14737;DHT22;7459;53.590;10.062;2024-03-07T13:33:06;6.40;99.90
14737;DHT22;7459;53.590;10.062;2024-03-07T13:35:32;6.40;99.90
14737;DHT22;7459;53.590;10.062;2024-03-07T13:37:58;6.40;99.90
14737;DHT22;7459;53.590;10.062;2024-03-07T13:40:27;6.40;99.90
14737;DHT22;7459;53.590;10.062;2024-03-07T13:45:37;6.40;99.90
14737;DHT22;7459;53.590;10.062;2024-03-07T13:48:09;6.40;99.90
14737;DHT22;7459;53.590;10.062;2024-03-07T13:50:38;6.50;99.90
14737;DHT22;7459;53.590;10.062;2024-03-07T13:53:06;6.50;99.90
14737;DHT22;7459;53.590;10.062;2024-03-07T13:55:51;6.50;99.90
14737;DHT22;7459;53.590;10.062;2024-03-07T13:59:08;6.60;99.90
14737;DHT22;7459;53.590;10.062;2024-03-07T14:02:02;6.70;99.90
14737;DHT22;7459;53.590;10.062;2024-03-07T14:04:45;6.90;99.90
14737;DHT22;7459;53.590;10.062;2024-03-07T14:07:50;7.10;99.90
14737;DHT22;7459;53.590;10.062;2024-03-07T14:11:06;7.30;99.90
14737;DHT22;7459;53.590;10.062;2024-03-07T14:17:31;7.50;99.90
14737;DHT22;7459;53.590;10.062;2024-03-07T14:27:09;7.70;99.90
14737;DHT22;7459;53.590;10.062;2024-03-07T14:32:37;7.70;99.90
14737;DHT22;7459;53.590;10.062;2024-03-07T14:35:23;7.70;99.90
14737;DHT22;7459;53.590;10.062;2024-03-07T14:40:18;7.70;99.90
14737;DHT22;7459;53.590;10.062;2024-03-07T14:42:48;7.80;99.90
14737;DHT22;7459;53.590;10.062;2024-03-07T14:45:25;7.90;99.90
14737;DHT22;7459;53.590;10.062;2024-03-07T14:48:03;7.90;99.90
14737;DHT22;7459;53.590;10.062;2024-03-07T14:50:30;8.00;99.90
14737;DHT22;7459;53.590;10.062;2024-03-07T14:52:58;8.00;99.90
14737;DHT22;7459;53.590;10.062;2024-03-07T14:55:24;8.10;99.90
14737;DHT22;7459;53.590;10.062;2024-03-07T14:57:50;8.20;99.90
14737;DHT22;7459;53.590;10.062;2024-03-07T15:00:16;8.20;99.90
14737;DHT22;7459;53.590;10.062;2024-03-07T15:02:49;8.20;99.90
14737;DHT22;7459;53.590;10.062;2024-03-07T15:05:16;8.30;99.90
14737;DHT22;7459;53.590;10.062;2024-03-07T15:07:43;8.30;99.90
14737;DHT22;7459;53.590;10.062;2024-03-07T15:10:17;8.30;99.90
14737;DHT22;7459;53.590;10.062;2024-03-07T15:12:46;8.40;99.90
14737;DHT22;7459;53.590;10.062;2024-03-07T15:15:13;8.40;99.90
14737;DHT22;7459;53.590;10.062;2024-03-07T15:17:42;8.30;99.90
14737;DHT22;7459;53.590;10.062;2024-03-07T15:20:09;8.30;99.90
14737;DHT22;7459;53.590;10.062;2024-03-07T15:22:57;8.30;99.90
14737;DHT22;7459;53.590;10.062;2024-03-07T15:25:25;8.30;99.90
14737;DHT22;7459;53.590;10.062;2024-03-07T15:27:52;8.30;99.90
14737;DHT22;7459;53.590;10.062;2024-03-07T15:30:22;8.20;99.90
14737;DHT22;7459;53.590;10.062;2024-03-07T15:32:58;8.20;99.90
14737;DHT22;7459;53.590;10.062;2024-03-07T15:35:25;8.10;99.90
14737;DHT22;7459;53.590;10.062;2024-03-07T15:37:52;8.00;99.90
14737;DHT22;7459;53.590;10.062;2024-03-07T15:40:20;8.00;99.90
14737;DHT22;7459;53.590;10.062;2024-03-07T15:42:47;8.00;99.90
14737;DHT22;7459;53.590;10.062;2024-03-07T15:45:18;7.90;99.90
14737;DHT22;7459;53.590;10.062;2024-03-07T15:47:54;7.90;99.90
14737;DHT22;7459;53.590;10.062;2024-03-07T15:50:23;7.80;99.90
14737;DHT22;7459;53.590;10.062;2024-03-07T15:52:54;7.80;99.90
14737;DHT22;7459;53.590;10.062;2024-03-07T15:55:21;7.80;99.90
14737;DHT22;7459;53.590;10.062;2024-03-07T15:57:53;7.80;99.90
14737;DHT22;7459;53.590;10.062;2024-03-07T16:00:22;7.80;99.90
14737;DHT22;7459;53.590;10.062;2024-03-07T16:02:59;7.70;99.90
14737;DHT22;7459;53.590;10.062;2024-03-07T16:05:39;7.70;99.90
14737;DHT22;7459;53.590;10.062;2024-03-07T16:08:08;7.70;99.90
14737;DHT22;7459;53.590;10.062;2024-03-07T16:10:36;7.60;99.90
14737;DHT22;7459;53.590;10.062;2024-03-07T16:13:04;7.60;99.90
14737;DHT22;7459;53.590;10.062;2024-03-07T16:15:35;7.60;99.90
14737;DHT22;7459;53.590;10.062;2024-03-07T16:18:02;7.60;99.90
14737;DHT22;7459;53.590;10.062;2024-03-07T16:20:29;7.50;99.90
14737;DHT22;7459;53.590;10.062;2024-03-07T16:22:55;7.50;99.90
14737;DHT22;7459;53.590;10.062;2024-03-07T16:25:23;7.50;99.90